createdAt,value
2023-03-10T00:00:05.844Z,3.50
2023-03-10T00:05:08.234Z,3.50
2023-03-10T00:10:14.784Z,3.50
2023-03-10T00:15:16.567Z,3.50
2023-03-10T00:20:18.434Z,3.50
2023-03-10T00:25:20.303Z,3.60
2023-03-10T00:30:22.032Z,3.70
2023-03-10T00:35:23.807Z,3.70
2023-03-10T00:40:25.618Z,3.70
2023-03-10T00:45:27.422Z,3.70
2023-03-10T00:50:29.157Z,3.70
2023-03-10T00:55:30.908Z,3.70
2023-03-10T01:00:32.766Z,3.70
2023-03-10T01:05:34.561Z,3.70
2023-03-10T01:10:36.354Z,3.80
2023-03-10T01:15:39.259Z,3.90
2023-03-10T01:20:44.474Z,4.00
2023-03-10T01:25:46.614Z,4.00
2023-03-10T01:30:48.801Z,3.90
2023-03-10T01:35:50.611Z,4.00
2023-03-10T01:40:52.463Z,4.10
2023-03-10T01:45:54.158Z,4.10
2023-03-10T01:50:57.679Z,4.10
2023-03-10T01:56:03.678Z,4.20
2023-03-10T02:01:07.608Z,4.40
2023-03-10T02:06:13.758Z,4.50
2023-03-10T02:11:16.423Z,4.40
2023-03-10T02:16:19.382Z,4.40
2023-03-10T02:21:33.015Z,4.30
2023-03-10T02:26:59.617Z,4.30
2023-03-10T02:32:02.779Z,4.30
2023-03-10T02:37:04.755Z,4.40
2023-03-10T02:42:06.826Z,4.40
2023-03-10T02:47:08.732Z,4.40
2023-03-10T02:52:50.760Z,4.50
2023-03-10T02:57:52.666Z,4.50
2023-03-10T03:02:54.575Z,4.40
2023-03-10T03:07:57.037Z,4.40
2023-03-10T03:12:59.278Z,4.40
2023-03-10T03:18:02.647Z,4.30
2023-03-10T03:23:07.747Z,4.30
2023-03-10T03:28:11.303Z,4.20
2023-03-10T03:33:13.919Z,4.20
2023-03-10T03:38:17.171Z,4.20
2023-03-10T03:43:20.050Z,4.10
2023-03-10T03:48:23.391Z,4.00
2023-03-10T03:53:26.591Z,3.90
2023-03-10T03:58:29.181Z,3.80
2023-03-10T04:03:31.439Z,3.60
2023-03-10T04:08:34.051Z,3.50
2023-03-10T04:13:37.371Z,3.50
2023-03-10T04:18:40.922Z,3.50
2023-03-10T04:23:46.244Z,3.50
2023-03-10T04:28:52.013Z,3.50
2023-03-10T04:33:55.690Z,3.50
2023-03-10T04:38:58.059Z,3.50
2023-03-10T04:44:04.419Z,3.50
2023-03-10T04:49:08.209Z,3.50
2023-03-10T04:54:10.147Z,3.50
2023-03-10T04:59:12.370Z,3.50
2023-03-10T05:04:14.661Z,3.50
2023-03-10T05:09:17.138Z,3.50
2023-03-10T05:14:20.055Z,3.60
2023-03-10T05:19:23.135Z,3.60
2023-03-10T05:24:26.009Z,3.70
2023-03-10T05:29:28.116Z,3.80
2023-03-10T05:34:36.035Z,3.80
2023-03-10T05:39:38.538Z,3.90
2023-03-10T05:44:45.178Z,4.00
2023-03-10T05:49:47.189Z,4.10
2023-03-10T05:54:49.566Z,4.10
2023-03-10T05:59:51.480Z,4.20
2023-03-10T06:04:53.462Z,4.20
2023-03-10T06:09:55.336Z,4.30
2023-03-10T06:14:57.088Z,4.30
2023-03-10T06:19:58.946Z,4.40
2023-03-10T06:25:00.843Z,4.40
2023-03-10T06:30:02.828Z,4.50
2023-03-10T06:35:05.280Z,4.60
2023-03-10T06:40:10.088Z,4.70
2023-03-10T06:45:15.843Z,4.70
2023-03-10T06:50:17.785Z,4.70
2023-03-10T06:55:19.578Z,4.80
2023-03-10T07:00:21.468Z,4.80
2023-03-10T07:05:24.628Z,4.90
2023-03-10T07:10:26.439Z,4.90
2023-03-10T07:15:28.731Z,5.00
2023-03-10T07:20:30.478Z,5.10
2023-03-10T07:25:35.436Z,5.10
2023-03-10T07:30:38.561Z,5.20
2023-03-10T07:35:40.424Z,5.20
2023-03-10T07:40:42.431Z,5.30
2023-03-10T07:45:44.216Z,5.50
2023-03-10T07:50:46.005Z,5.60
2023-03-10T07:55:47.758Z,5.80
2023-03-10T08:00:57.304Z,6.00
2023-03-10T08:05:59.773Z,6.40
2023-03-10T08:11:04.199Z,6.60
2023-03-10T08:16:07.082Z,6.80
2023-03-10T08:21:09.724Z,7.10
2023-03-10T08:26:14.545Z,7.60
2023-03-10T08:31:21.409Z,8.10
2023-03-10T08:36:25.681Z,8.50
2023-03-10T08:41:49.797Z,8.80
2023-03-10T08:46:52.033Z,9.30
2023-03-10T08:51:53.874Z,9.60
2023-03-10T08:56:55.687Z,9.90
2023-03-10T09:01:57.492Z,10.00
2023-03-10T09:06:59.323Z,10.00
2023-03-10T09:12:01.166Z,10.00
2023-03-10T09:17:03.162Z,10.20
2023-03-10T09:22:05.492Z,10.30
2023-03-10T09:27:07.690Z,10.60
2023-03-10T09:32:09.656Z,10.80
2023-03-10T09:37:11.866Z,10.90
2023-03-10T09:42:37.409Z,10.90
2023-03-10T09:48:11.435Z,10.90
2023-03-10T09:53:27.600Z,10.70
2023-03-10T09:58:42.414Z,10.60
2023-03-10T10:03:52.960Z,10.50
2023-03-10T10:09:07.084Z,10.60
2023-03-10T10:14:31.849Z,10.60
2023-03-10T10:19:37.209Z,10.70
2023-03-10T10:24:40.541Z,10.80
2023-03-10T10:29:46.905Z,10.90
2023-03-10T10:34:49.283Z,11.10
2023-03-10T10:39:53.381Z,11.20
2023-03-10T10:45:05.389Z,11.40
2023-03-10T10:50:17.975Z,11.40
2023-03-10T10:55:31.586Z,11.50
2023-03-10T11:00:39.170Z,11.60
2023-03-10T11:05:40.939Z,11.40
2023-03-10T11:10:42.880Z,11.30
2023-03-10T11:15:54.393Z,11.20
2023-03-10T11:21:14.295Z,10.90
2023-03-10T11:26:22.126Z,10.90
2023-03-10T11:31:30.583Z,10.80
2023-03-10T11:37:14.420Z,10.40
2023-03-10T11:42:30.571Z,10.10
2023-03-10T11:47:48.262Z,10.30
2023-03-10T11:52:54.806Z,10.40
2023-03-10T11:58:00.318Z,10.50
2023-03-10T12:03:12.426Z,10.50
2023-03-10T12:08:17.579Z,10.60
2023-03-10T12:13:30.284Z,10.60
2023-03-10T12:18:33.611Z,10.70
2023-03-10T12:23:41.093Z,10.70
2023-03-10T12:28:42.831Z,11.00
2023-03-10T12:33:45.864Z,11.40
2023-03-10T12:38:59.509Z,11.40
2023-03-10T12:44:01.547Z,11.20
2023-03-10T12:49:14.321Z,10.90
2023-03-10T12:54:41.186Z,10.90
2023-03-10T12:59:46.030Z,10.90
2023-03-10T13:04:47.890Z,11.00
2023-03-10T13:09:50.787Z,11.00
2023-03-10T13:14:56.142Z,10.90
2023-03-10T13:20:11.996Z,11.10
2023-03-10T13:25:14.995Z,11.50
2023-03-10T13:30:22.402Z,11.80
2023-03-10T13:35:26.162Z,11.70
2023-03-10T13:40:28.445Z,11.30
2023-03-10T13:45:34.240Z,11.10
2023-03-10T13:50:36.169Z,10.90
2023-03-10T13:55:40.922Z,10.80
2023-03-10T14:00:47.290Z,10.60
2023-03-10T14:05:49.584Z,10.60
2023-03-10T14:10:51.839Z,10.50
2023-03-10T14:15:55.211Z,10.40
2023-03-10T14:20:57.128Z,10.30
2023-03-10T14:25:58.974Z,10.20
2023-03-10T14:31:02.506Z,10.10
2023-03-10T14:36:06.009Z,10.20
2023-03-10T14:41:07.886Z,10.20
2023-03-10T14:46:12.442Z,10.10
2023-03-10T14:51:29.031Z,10.10
2023-03-10T14:56:36.063Z,10.00
2023-03-10T15:01:37.922Z,10.00
2023-03-10T15:06:39.859Z,9.90
2023-03-10T15:11:41.918Z,9.80
2023-03-10T15:16:44.090Z,9.80
2023-03-10T15:21:45.943Z,9.80
2023-03-10T15:26:50.737Z,9.80
2023-03-10T15:31:52.481Z,9.70
2023-03-10T15:36:59.230Z,9.70
2023-03-10T15:42:01.023Z,9.60
2023-03-10T15:47:02.910Z,9.60
2023-03-10T15:52:04.975Z,9.50
2023-03-10T15:57:09.327Z,9.40
2023-03-10T16:02:12.595Z,9.30
2023-03-10T16:07:14.717Z,9.10
2023-03-10T16:12:16.518Z,9.00
2023-03-10T16:17:18.486Z,8.90
2023-03-10T16:22:20.368Z,9.00
2023-03-10T16:27:22.317Z,8.90
2023-03-10T16:32:24.214Z,8.90
2023-03-10T16:37:28.227Z,8.80
2023-03-10T16:42:35.613Z,8.80
2023-03-10T16:47:37.579Z,8.80
2023-03-10T16:52:40.997Z,8.70
2023-03-10T16:57:45.733Z,8.60
2023-03-10T17:02:47.519Z,8.50
2023-03-10T17:07:55.615Z,8.30
2023-03-10T17:12:57.947Z,8.20
2023-03-10T17:18:00.079Z,8.20
2023-03-10T17:23:01.870Z,8.10
2023-03-10T17:28:03.869Z,8.00
2023-03-10T17:33:05.608Z,7.90
2023-03-10T17:38:07.409Z,7.80
2023-03-10T17:43:23.242Z,7.90
2023-03-10T17:48:31.901Z,7.80
2023-03-10T17:53:33.802Z,7.70
2023-03-10T17:58:35.931Z,7.70
2023-03-10T18:03:38.082Z,7.60
2023-03-10T18:08:40.912Z,7.50
2023-03-10T18:13:43.091Z,7.50
2023-03-10T18:18:45.379Z,7.50
2023-03-10T18:23:47.613Z,7.50
2023-03-10T18:28:49.370Z,7.50
2023-03-10T18:33:51.423Z,7.50
2023-03-10T18:38:54.003Z,7.40
2023-03-10T18:43:55.811Z,7.30
2023-03-10T18:48:57.702Z,7.30
2023-03-10T18:53:59.664Z,7.30
2023-03-10T18:59:01.480Z,7.30
2023-03-10T19:04:03.903Z,7.20
2023-03-10T19:09:08.464Z,7.10
2023-03-10T19:14:10.344Z,7.00
2023-03-10T19:19:12.166Z,6.90
2023-03-10T19:24:13.939Z,6.80
2023-03-10T19:29:15.820Z,6.50
2023-03-10T19:34:18.224Z,6.40
2023-03-10T19:39:20.115Z,6.20
2023-03-10T19:44:22.026Z,6.00
2023-03-10T19:49:24.661Z,5.60
2023-03-10T19:54:26.781Z,5.50
2023-03-10T19:59:28.727Z,5.50
2023-03-10T20:04:34.441Z,5.50
2023-03-10T20:09:36.211Z,5.40
2023-03-10T20:14:37.990Z,5.40
2023-03-10T20:19:41.053Z,5.30
2023-03-10T20:24:42.848Z,5.20
2023-03-10T20:29:44.559Z,5.20
2023-03-10T20:34:46.313Z,5.20
2023-03-10T20:39:48.076Z,5.20
2023-03-10T20:44:49.865Z,5.30
2023-03-10T20:49:51.688Z,5.20
2023-03-10T20:54:54.220Z,5.20
2023-03-10T20:59:56.063Z,5.30
2023-03-10T21:04:58.015Z,5.30
2023-03-10T21:10:00.026Z,5.20
2023-03-10T21:15:01.821Z,5.30
2023-03-10T21:20:07.983Z,5.40
2023-03-10T21:25:13.996Z,5.40
2023-03-10T21:30:17.125Z,5.30
2023-03-10T21:35:19.266Z,5.20
2023-03-10T21:40:24.337Z,5.20
2023-03-10T21:45:27.509Z,5.10
2023-03-10T21:50:29.396Z,5.00
2023-03-10T21:55:34.362Z,5.10
2023-03-10T22:00:36.399Z,5.10
2023-03-10T22:05:38.232Z,5.00
2023-03-10T22:10:40.028Z,5.00
2023-03-10T22:15:41.870Z,5.00
2023-03-10T22:20:43.635Z,5.00
2023-03-10T22:25:45.387Z,5.00
2023-03-10T22:30:47.117Z,5.00
2023-03-10T22:35:52.183Z,4.90
2023-03-10T22:40:54.092Z,4.90
2023-03-10T22:45:59.158Z,4.80
2023-03-10T22:51:00.891Z,4.70
2023-03-10T22:56:02.955Z,4.50
2023-03-10T23:01:05.581Z,4.40
2023-03-10T23:06:07.739Z,4.20
2023-03-10T23:11:11.720Z,4.00
2023-03-10T23:16:13.732Z,3.80
2023-03-10T23:21:15.593Z,3.70
2023-03-10T23:26:17.424Z,3.50
2023-03-10T23:31:19.243Z,3.40
2023-03-10T23:36:21.145Z,3.30
2023-03-10T23:41:22.948Z,3.20
2023-03-10T23:46:25.114Z,3.20
2023-03-10T23:51:28.857Z,3.00
2023-03-10T23:56:30.603Z,3.10
